createdAt,value
2018-09-27T00:00:30.556Z,16.18
2018-09-27T00:01:30.527Z,16.14
2018-09-27T00:02:30.501Z,16.01
2018-09-27T00:03:30.474Z,16.04
2018-09-27T00:04:30.447Z,15.97
2018-09-27T00:05:30.420Z,16.09
2018-09-27T00:06:31.220Z,16.09
2018-09-27T00:07:30.365Z,16.01
2018-09-27T00:08:30.338Z,16.04
2018-09-27T00:09:30.310Z,16.04
2018-09-27T00:10:30.285Z,16.00
2018-09-27T00:11:30.257Z,16.01
2018-09-27T00:12:30.231Z,16.01
2018-09-27T00:13:30.206Z,16.00
2018-09-27T00:14:30.175Z,16.00
2018-09-27T00:15:30.149Z,16.07
2018-09-27T00:16:30.122Z,16.09
2018-09-27T00:17:30.098Z,16.00
2018-09-27T00:18:30.068Z,15.99
2018-09-27T00:19:30.123Z,15.93
2018-09-27T00:20:30.015Z,15.99
2018-09-27T00:21:29.986Z,16.01
2018-09-27T00:22:29.960Z,16.00
2018-09-27T00:23:29.932Z,15.93
2018-09-27T00:24:29.910Z,16.01
2018-09-27T00:25:29.878Z,16.03
2018-09-27T00:26:29.851Z,15.99
2018-09-27T00:27:29.825Z,15.99
2018-09-27T00:28:29.797Z,16.01
2018-09-27T00:29:29.771Z,15.89
2018-09-27T00:30:29.744Z,15.93
2018-09-27T00:31:29.716Z,15.96
2018-09-27T00:32:29.690Z,15.99
2018-09-27T00:33:29.661Z,16.00
2018-09-27T00:34:29.634Z,16.00
2018-09-27T00:35:29.667Z,15.97
2018-09-27T00:36:29.578Z,16.00
2018-09-27T00:37:29.552Z,16.01
2018-09-27T00:38:29.527Z,15.99
2018-09-27T00:39:29.500Z,15.97
2018-09-27T00:40:29.473Z,16.03
2018-09-27T00:41:29.443Z,15.99
2018-09-27T00:42:29.418Z,15.94
2018-09-27T00:43:29.390Z,15.99
2018-09-27T00:44:29.364Z,15.96
2018-09-27T00:45:29.336Z,15.94
2018-09-27T00:46:29.309Z,15.94
2018-09-27T00:47:29.279Z,15.93
2018-09-27T00:48:29.254Z,15.92
2018-09-27T00:49:29.227Z,15.89
2018-09-27T00:50:29.201Z,15.88
2018-09-27T00:51:29.172Z,15.99
2018-09-27T00:52:29.147Z,15.93
2018-09-27T00:53:29.120Z,15.89
2018-09-27T00:54:29.093Z,15.94
2018-09-27T00:55:29.063Z,15.99
2018-09-27T00:56:29.041Z,15.86
2018-09-27T00:57:29.010Z,15.92
2018-09-27T00:58:28.983Z,15.93
2018-09-27T00:59:28.956Z,15.94
2018-09-27T01:00:28.930Z,15.89
2018-09-27T01:01:28.902Z,15.93
2018-09-27T01:02:28.876Z,15.92
2018-09-27T01:03:28.847Z,15.94
2018-09-27T01:04:28.820Z,15.94
2018-09-27T01:05:28.793Z,15.97
2018-09-27T01:06:28.766Z,15.93
2018-09-27T01:07:28.740Z,15.93
2018-09-27T01:08:28.713Z,15.89
2018-09-27T01:09:28.685Z,15.92
2018-09-27T01:10:28.663Z,15.94
2018-09-27T01:11:28.631Z,15.85
2018-09-27T01:12:28.604Z,15.89
2018-09-27T01:13:28.578Z,15.93
2018-09-27T01:14:28.550Z,15.94
2018-09-27T01:15:28.523Z,15.89
2018-09-27T01:16:28.496Z,15.84
2018-09-27T01:17:28.468Z,15.84
2018-09-27T01:18:28.442Z,15.88
2018-09-27T01:19:28.413Z,15.85
2018-09-27T01:20:28.386Z,15.85
2018-09-27T01:21:28.359Z,15.82
2018-09-27T01:22:28.332Z,15.86
2018-09-27T01:23:28.305Z,15.86
2018-09-27T01:24:28.279Z,15.88
2018-09-27T01:25:28.253Z,15.82
2018-09-27T01:26:28.225Z,15.82
2018-09-27T01:27:28.198Z,15.81
2018-09-27T01:28:28.170Z,15.84
2018-09-27T01:29:28.145Z,15.72
2018-09-27T01:30:28.119Z,15.81
2018-09-27T01:31:28.088Z,15.79
2018-09-27T01:32:28.061Z,15.72
2018-09-27T01:33:28.035Z,15.72
2018-09-27T01:34:28.008Z,15.67
2018-09-27T01:35:27.980Z,15.74
2018-09-27T01:36:27.952Z,15.67
2018-09-27T01:37:27.925Z,15.63
2018-09-27T01:38:27.900Z,15.67
2018-09-27T01:39:27.871Z,15.61
2018-09-27T01:40:27.843Z,15.66
2018-09-27T01:41:27.822Z,15.68
2018-09-27T01:42:27.790Z,15.61
2018-09-27T01:43:27.761Z,15.60
2018-09-27T01:44:27.736Z,15.63
2018-09-27T01:45:27.707Z,15.59
2018-09-27T01:46:27.682Z,15.60
2018-09-27T01:47:27.653Z,15.60
2018-09-27T01:48:27.643Z,15.64
2018-09-27T01:49:27.596Z,15.61
2018-09-27T01:50:27.572Z,15.63
2018-09-27T01:51:27.544Z,15.66
2018-09-27T01:52:27.517Z,15.60
2018-09-27T01:53:27.491Z,15.60
2018-09-27T01:54:27.463Z,15.54
2018-09-27T01:55:27.435Z,15.52
2018-09-27T01:56:27.409Z,15.57
2018-09-27T01:57:27.380Z,15.52
2018-09-27T01:58:27.354Z,15.60
2018-09-27T01:59:27.329Z,15.52
2018-09-27T02:00:27.299Z,15.60
2018-09-27T02:01:27.272Z,15.64
2018-09-27T02:02:27.249Z,15.63
2018-09-27T02:03:27.216Z,15.57
2018-09-27T02:04:27.191Z,15.60
2018-09-27T02:05:27.164Z,15.61
2018-09-27T02:06:27.136Z,15.52
2018-09-27T02:07:27.110Z,15.61
2018-09-27T02:08:27.083Z,15.52
2018-09-27T02:09:27.052Z,15.64
2018-09-27T02:10:27.031Z,15.64
2018-09-27T02:11:26.999Z,15.52
2018-09-27T02:12:26.972Z,15.56
2018-09-27T02:13:26.946Z,15.54
2018-09-27T02:14:26.919Z,15.52
2018-09-27T02:15:26.890Z,15.54
2018-09-27T02:16:26.863Z,15.51
2018-09-27T02:17:26.837Z,15.43
2018-09-27T02:18:26.809Z,15.51
2018-09-27T02:19:26.785Z,15.52
2018-09-27T02:20:26.754Z,15.51
2018-09-27T02:21:26.727Z,15.57
2018-09-27T02:22:26.702Z,15.45
2018-09-27T02:23:26.673Z,15.57
2018-09-27T02:24:26.655Z,15.51
2018-09-27T02:25:26.619Z,15.49
2018-09-27T02:26:26.591Z,15.45
2018-09-27T02:27:26.563Z,15.51
2018-09-27T02:28:26.537Z,15.43
2018-09-27T02:29:26.511Z,15.56
2018-09-27T02:30:26.483Z,15.54
2018-09-27T02:31:26.454Z,15.51
2018-09-27T02:32:26.428Z,15.48
2018-09-27T02:33:26.402Z,15.54
2018-09-27T02:34:26.373Z,15.48
2018-09-27T02:35:26.348Z,15.46
2018-09-27T02:36:26.323Z,15.45
2018-09-27T02:37:26.292Z,15.42
2018-09-27T02:38:26.262Z,15.46
2018-09-27T02:39:26.237Z,15.46
2018-09-27T02:40:26.209Z,15.41
2018-09-27T02:41:26.182Z,15.43
2018-09-27T02:42:26.154Z,15.38
2018-09-27T02:43:26.126Z,15.43
2018-09-27T02:44:26.100Z,15.46
2018-09-27T02:45:26.073Z,15.48
2018-09-27T02:46:26.047Z,15.51
2018-09-27T02:47:26.020Z,15.46
2018-09-27T02:48:25.989Z,15.43
2018-09-27T02:49:25.962Z,15.52
2018-09-27T02:50:25.936Z,15.39
2018-09-27T02:51:25.906Z,15.42
2018-09-27T02:52:25.881Z,15.39
2018-09-27T02:53:25.853Z,15.42
2018-09-27T02:54:25.827Z,15.35
2018-09-27T02:55:25.798Z,15.30
2018-09-27T02:56:25.771Z,15.38
2018-09-27T02:57:25.743Z,15.38
2018-09-27T02:58:25.719Z,15.41
2018-09-27T02:59:25.690Z,15.26
2018-09-27T03:00:25.662Z,15.33
2018-09-27T03:01:25.633Z,15.35
2018-09-27T03:02:25.606Z,15.28
2018-09-27T03:03:25.581Z,15.30
2018-09-27T03:04:25.551Z,15.31
2018-09-27T03:05:25.527Z,15.35
2018-09-27T03:06:25.496Z,15.27
2018-09-27T03:07:25.469Z,15.33
2018-09-27T03:08:25.444Z,15.39
2018-09-27T03:09:25.415Z,15.30
2018-09-27T03:10:25.397Z,15.33
2018-09-27T03:11:25.358Z,15.30
2018-09-27T03:12:25.331Z,15.31
2018-09-27T03:13:25.305Z,15.31
2018-09-27T03:14:25.279Z,15.41
2018-09-27T03:15:25.249Z,15.35
2018-09-27T03:16:25.223Z,15.38
2018-09-27T03:17:25.197Z,15.33
2018-09-27T03:18:25.169Z,15.36
2018-09-27T03:19:25.156Z,15.38
2018-09-27T03:20:25.113Z,15.38
2018-09-27T03:21:25.087Z,15.38
2018-09-27T03:22:25.057Z,15.36
2018-09-27T03:23:25.030Z,15.33
2018-09-27T03:24:25.005Z,15.39
2018-09-27T03:25:24.976Z,15.41
2018-09-27T03:26:24.949Z,15.39
2018-09-27T03:27:24.925Z,15.42
2018-09-27T03:28:24.893Z,15.36
2018-09-27T03:29:24.869Z,15.39
2018-09-27T03:30:24.839Z,15.42
2018-09-27T03:31:24.810Z,15.41
2018-09-27T03:32:25.760Z,15.39
2018-09-27T03:33:24.756Z,15.39
2018-09-27T03:34:24.730Z,15.48
2018-09-27T03:35:25.262Z,15.42
2018-09-27T03:36:24.674Z,15.49
2018-09-27T03:37:24.646Z,15.45
2018-09-27T03:38:24.621Z,15.45
2018-09-27T03:39:24.591Z,15.43
2018-09-27T03:40:24.572Z,15.48
2018-09-27T03:41:24.536Z,15.51
2018-09-27T03:42:24.510Z,15.46
2018-09-27T03:43:24.484Z,15.49
2018-09-27T03:44:24.454Z,15.46
2018-09-27T03:45:24.428Z,15.57
2018-09-27T03:46:24.401Z,15.51
2018-09-27T03:47:24.373Z,15.51
2018-09-27T03:48:24.346Z,15.59
2018-09-27T03:49:24.325Z,15.49
2018-09-27T03:50:24.294Z,15.57
2018-09-27T03:51:24.263Z,15.52
2018-09-27T03:52:24.235Z,15.52
2018-09-27T03:53:24.209Z,15.54
2018-09-27T03:54:24.180Z,15.64
2018-09-27T03:55:24.154Z,15.54
2018-09-27T03:56:24.127Z,15.59
2018-09-27T03:57:24.100Z,15.60
2018-09-27T03:58:24.073Z,15.56
2018-09-27T03:59:24.047Z,15.49
2018-09-27T04:00:24.016Z,15.59
2018-09-27T04:01:23.989Z,15.61
2018-09-27T04:02:23.965Z,15.56
2018-09-27T04:03:24.150Z,15.57
2018-09-27T04:04:23.909Z,15.59
2018-09-27T04:05:23.882Z,15.64
2018-09-27T04:06:23.853Z,15.61
2018-09-27T04:07:23.824Z,15.63
2018-09-27T04:08:23.796Z,15.57
2018-09-27T04:09:23.771Z,15.63
2018-09-27T04:10:23.742Z,15.67
2018-09-27T04:11:23.715Z,15.64
2018-09-27T04:12:23.687Z,15.66
2018-09-27T04:13:23.661Z,15.64
2018-09-27T04:14:23.633Z,15.70
2018-09-27T04:15:23.607Z,15.74
2018-09-27T04:16:23.581Z,15.70
2018-09-27T04:17:23.554Z,15.74
2018-09-27T04:18:23.525Z,15.74
2018-09-27T04:19:23.495Z,15.78
2018-09-27T04:20:23.472Z,15.78
2018-09-27T04:21:23.442Z,15.81
2018-09-27T04:22:23.419Z,15.68
2018-09-27T04:23:23.388Z,15.72
2018-09-27T04:24:23.361Z,15.84
2018-09-27T04:25:23.334Z,15.79
2018-09-27T04:26:23.309Z,15.79
2018-09-27T04:27:23.281Z,15.85
2018-09-27T04:28:23.258Z,15.86
2018-09-27T04:29:23.225Z,15.88
2018-09-27T04:30:23.195Z,15.86
2018-09-27T04:31:23.170Z,15.85
2018-09-27T04:32:23.142Z,15.85
2018-09-27T04:33:23.116Z,15.89
2018-09-27T04:34:23.089Z,15.85
2018-09-27T04:35:23.061Z,15.86
2018-09-27T04:36:23.034Z,15.94
2018-09-27T04:37:23.006Z,15.92
2018-09-27T04:38:22.979Z,15.93
2018-09-27T04:39:22.953Z,15.97
2018-09-27T04:40:22.926Z,15.94
2018-09-27T04:41:22.899Z,15.92
2018-09-27T04:42:22.869Z,15.92
2018-09-27T04:43:22.843Z,15.94
2018-09-27T04:44:22.817Z,15.93
2018-09-27T04:45:22.790Z,15.96
2018-09-27T04:46:22.763Z,15.97
2018-09-27T04:47:22.736Z,15.97
2018-09-27T04:48:22.706Z,15.94
2018-09-27T04:49:22.680Z,15.89
2018-09-27T04:50:22.653Z,15.94
2018-09-27T04:51:22.626Z,16.00
2018-09-27T04:52:22.600Z,16.03
2018-09-27T04:53:22.572Z,15.99
2018-09-27T04:54:22.571Z,15.94
2018-09-27T04:55:22.518Z,16.01
2018-09-27T04:56:22.490Z,16.01
2018-09-27T04:57:22.464Z,15.99
2018-09-27T04:58:22.437Z,16.06
2018-09-27T04:59:22.410Z,16.01
2018-09-27T05:00:29.800Z,16.07
2018-09-27T05:02:15.213Z,16.09
2018-09-27T05:03:15.161Z,16.00
2018-09-27T05:05:07.972Z,16.09
2018-09-27T05:06:07.939Z,16.03
2018-09-27T05:07:07.914Z,16.09
2018-09-27T05:08:07.886Z,16.07
2018-09-27T05:09:07.860Z,16.12
2018-09-27T05:10:07.833Z,16.06
2018-09-27T05:11:07.806Z,16.18
2018-09-27T05:12:07.780Z,16.14
2018-09-27T05:13:07.751Z,16.18
2018-09-27T05:14:07.726Z,16.12
2018-09-27T05:15:07.696Z,16.12
2018-09-27T05:16:07.728Z,16.12
2018-09-27T05:17:07.645Z,16.16
2018-09-27T05:18:07.616Z,16.07
2018-09-27T05:19:07.590Z,16.12
2018-09-27T05:20:07.564Z,16.14
2018-09-27T05:21:07.543Z,16.12
2018-09-27T05:22:07.509Z,16.14
2018-09-27T05:23:07.481Z,16.20
2018-09-27T05:24:07.455Z,16.22
2018-09-27T05:25:07.428Z,16.18
2018-09-27T05:26:07.402Z,16.15
2018-09-27T05:27:07.378Z,16.20
2018-09-27T05:28:07.345Z,16.30
2018-09-27T05:29:07.318Z,16.18
2018-09-27T05:30:07.296Z,16.22
2018-09-27T05:31:07.272Z,16.27
2018-09-27T05:32:07.239Z,16.25
2018-09-27T05:33:07.213Z,16.27
2018-09-27T05:34:07.182Z,16.31
2018-09-27T05:35:07.154Z,16.31
2018-09-27T05:36:07.130Z,16.33
2018-09-27T05:37:07.107Z,16.37
2018-09-27T05:38:07.076Z,16.33
2018-09-27T05:39:07.056Z,16.35
2018-09-27T05:40:07.024Z,16.41
2018-09-27T05:41:06.997Z,16.37
2018-09-27T05:42:06.972Z,16.41
2018-09-27T05:43:06.945Z,16.35
2018-09-27T05:44:06.925Z,16.44
2018-09-27T05:45:06.889Z,16.40
2018-09-27T05:46:06.862Z,16.52
2018-09-27T05:47:06.837Z,16.42
2018-09-27T05:48:06.807Z,16.42
2018-09-27T05:49:06.784Z,16.49
2018-09-27T05:50:06.755Z,16.44
2018-09-27T05:51:06.730Z,16.56
2018-09-27T05:52:06.699Z,16.52
2018-09-27T05:53:06.673Z,16.53
2018-09-27T05:54:06.654Z,16.50
2018-09-27T05:55:06.649Z,16.40
2018-09-27T05:56:06.602Z,16.44
2018-09-27T05:57:06.568Z,16.42
2018-09-27T05:58:06.539Z,16.50
2018-09-27T05:59:06.515Z,16.45
2018-09-27T06:00:06.488Z,16.55
2018-09-27T06:01:06.512Z,16.49
2018-09-27T06:02:06.495Z,16.45
2018-09-27T06:03:06.409Z,16.50
2018-09-27T06:04:06.379Z,16.48
2018-09-27T06:05:06.356Z,16.53
2018-09-27T06:06:06.328Z,16.56
2018-09-27T06:07:06.300Z,16.55
2018-09-27T06:08:06.275Z,16.52
2018-09-27T06:09:06.248Z,16.55
2018-09-27T06:10:06.221Z,16.55
2018-09-27T06:11:06.197Z,16.59
2018-09-27T06:12:06.168Z,16.55
2018-09-27T06:13:07.083Z,16.53
2018-09-27T06:14:06.113Z,16.58
2018-09-27T06:15:06.086Z,16.55
2018-09-27T06:16:06.082Z,16.50
2018-09-27T06:17:06.039Z,16.55
2018-09-27T06:18:06.005Z,16.55
2018-09-27T06:19:05.980Z,16.52
2018-09-27T06:20:05.953Z,16.45
2018-09-27T06:21:05.927Z,16.55
2018-09-27T06:22:06.582Z,16.45
2018-09-27T06:23:05.875Z,16.60
2018-09-27T06:24:05.853Z,16.55
2018-09-27T06:25:05.822Z,16.52
2018-09-27T06:26:05.827Z,16.60
2018-09-27T06:27:05.769Z,16.58
2018-09-27T06:28:05.740Z,16.62
2018-09-27T06:29:05.716Z,16.52
2018-09-27T06:30:05.691Z,16.48
2018-09-27T06:31:05.661Z,16.52
2018-09-27T06:32:05.634Z,16.55
2018-09-27T06:33:05.609Z,16.58
2018-09-27T06:34:05.581Z,16.52
2018-09-27T06:35:05.625Z,16.65
2018-09-27T06:36:05.528Z,16.49
2018-09-27T06:37:05.501Z,16.58
2018-09-27T06:38:05.476Z,16.59
2018-09-27T06:39:05.452Z,16.62
2018-09-27T06:40:05.423Z,16.56
2018-09-27T06:41:05.397Z,16.62
2018-09-27T06:42:05.370Z,16.63
2018-09-27T06:43:05.345Z,16.62
2018-09-27T06:44:05.340Z,16.58
2018-09-27T06:45:05.290Z,16.59
2018-09-27T06:46:05.269Z,16.63
2018-09-27T06:47:05.239Z,16.55
2018-09-27T06:48:05.211Z,16.63
2018-09-27T06:49:05.187Z,16.60
2018-09-27T06:50:05.158Z,16.62
2018-09-27T06:51:05.133Z,16.71
2018-09-27T06:52:05.111Z,16.73
2018-09-27T06:53:05.080Z,16.75
2018-09-27T06:54:05.053Z,16.67
2018-09-27T06:55:05.706Z,16.75
2018-09-27T06:56:05.015Z,16.81
2018-09-27T06:57:04.977Z,16.78
2018-09-27T06:58:04.950Z,16.77
2018-09-27T06:59:04.923Z,16.80
2018-09-27T07:00:04.899Z,16.75
2018-09-27T07:01:04.878Z,16.83
2018-09-27T07:02:04.845Z,16.83
2018-09-27T07:03:04.822Z,16.81
2018-09-27T07:04:04.793Z,16.89
2018-09-27T07:05:04.768Z,16.89
2018-09-27T07:06:04.739Z,16.92
2018-09-27T07:07:04.723Z,16.92
2018-09-27T07:08:04.694Z,17.00
2018-09-27T07:09:04.664Z,17.07
2018-09-27T07:10:04.638Z,17.04
2018-09-27T07:11:04.610Z,17.08
2018-09-27T07:12:04.697Z,17.11
2018-09-27T07:13:04.559Z,17.11
2018-09-27T07:14:04.530Z,17.07
2018-09-27T07:15:04.514Z,17.07
2018-09-27T07:16:04.481Z,17.17
2018-09-27T07:17:04.456Z,17.20
2018-09-27T07:18:04.430Z,17.28
2018-09-27T07:19:04.402Z,17.26
2018-09-27T07:20:04.378Z,17.26
2018-09-27T07:21:04.352Z,17.20
2018-09-27T07:22:04.325Z,17.32
2018-09-27T07:23:04.300Z,17.43
2018-09-27T07:24:04.278Z,17.43
2018-09-27T07:25:04.282Z,17.46
2018-09-27T07:26:04.224Z,17.50
2018-09-27T07:27:04.268Z,17.54
2018-09-27T07:28:04.173Z,17.55
2018-09-27T07:29:04.148Z,17.62
2018-09-27T07:30:04.209Z,17.62
2018-09-27T07:31:04.167Z,17.73
2018-09-27T07:32:04.077Z,17.64
2018-09-27T07:33:04.048Z,17.70
2018-09-27T07:34:04.022Z,17.57
2018-09-27T07:35:03.996Z,17.62
2018-09-27T07:36:03.971Z,17.66
2018-09-27T07:37:03.947Z,17.63
2018-09-27T07:38:03.921Z,17.69
2018-09-27T07:39:03.898Z,17.79
2018-09-27T07:40:03.872Z,17.85
2018-09-27T07:41:03.849Z,17.79
2018-09-27T07:42:03.824Z,17.92
2018-09-27T07:43:03.798Z,17.97
2018-09-27T07:44:03.772Z,18.06
2018-09-27T07:45:03.749Z,18.03
2018-09-27T07:46:03.723Z,18.03
2018-09-27T07:47:03.698Z,18.00
2018-09-27T07:48:03.673Z,18.02
2018-09-27T07:49:03.652Z,18.06
2018-09-27T07:50:03.626Z,17.99
2018-09-27T07:51:03.601Z,18.04
2018-09-27T07:52:03.576Z,17.88
2018-09-27T07:53:03.554Z,17.91
2018-09-27T07:54:03.526Z,17.92
2018-09-27T07:55:03.502Z,17.84
2018-09-27T07:56:03.478Z,17.92
2018-09-27T07:57:03.455Z,17.92
2018-09-27T07:58:03.431Z,17.88
2018-09-27T07:59:03.410Z,18.06
2018-09-27T08:00:03.400Z,18.00
2018-09-27T08:01:03.360Z,17.92
2018-09-27T08:02:03.337Z,17.91
2018-09-27T08:03:03.443Z,17.88
2018-09-27T08:04:03.333Z,17.92
2018-09-27T08:05:03.261Z,17.92
2018-09-27T08:06:03.235Z,17.81
2018-09-27T08:07:03.221Z,17.73
2018-09-27T08:08:03.189Z,17.55
2018-09-27T08:09:03.163Z,17.47
2018-09-27T08:10:03.137Z,17.53
2018-09-27T08:11:03.161Z,17.55
2018-09-27T08:12:03.135Z,17.54
2018-09-27T08:13:03.066Z,17.51
2018-09-27T08:14:03.040Z,17.46
2018-09-27T08:15:03.016Z,17.48
2018-09-27T08:16:02.991Z,17.53
2018-09-27T08:17:02.973Z,17.47
2018-09-27T08:18:02.944Z,17.44
2018-09-27T08:19:02.919Z,17.40
2018-09-27T08:20:02.895Z,17.28
2018-09-27T08:21:02.953Z,17.33
2018-09-27T08:22:02.843Z,17.38
2018-09-27T08:23:02.821Z,17.54
2018-09-27T08:24:02.855Z,17.50
2018-09-27T08:25:02.773Z,17.53
2018-09-27T08:26:02.748Z,17.53
2018-09-27T08:27:02.722Z,17.48
2018-09-27T08:28:02.696Z,17.51
2018-09-27T08:29:02.666Z,17.53
2018-09-27T08:30:02.655Z,17.50
2018-09-27T08:31:02.679Z,17.59
2018-09-27T08:32:02.599Z,17.67
2018-09-27T08:33:02.573Z,17.73
2018-09-27T08:34:02.544Z,17.76
2018-09-27T08:35:02.522Z,17.69
2018-09-27T08:36:02.496Z,17.67
2018-09-27T08:37:02.477Z,17.82
2018-09-27T08:38:02.446Z,17.79
2018-09-27T08:39:02.419Z,18.04
2018-09-27T08:40:02.394Z,18.12
2018-09-27T08:41:02.375Z,18.10
2018-09-27T08:42:02.361Z,18.21
2018-09-27T08:43:02.329Z,18.18
2018-09-27T08:44:02.301Z,18.17
2018-09-27T08:45:02.543Z,18.27
2018-09-27T08:46:02.250Z,18.37
2018-09-27T08:47:02.227Z,18.43
2018-09-27T08:48:02.277Z,18.49
2018-09-27T08:49:02.181Z,18.50
2018-09-27T08:50:02.154Z,18.42
2018-09-27T08:51:02.130Z,18.34
2018-09-27T08:52:02.105Z,18.33
2018-09-27T08:53:02.083Z,18.29
2018-09-27T08:54:02.056Z,18.33
2018-09-27T08:55:02.039Z,18.43
2018-09-27T08:56:02.074Z,18.55
2018-09-27T08:57:01.985Z,18.68
2018-09-27T08:58:01.962Z,18.86
2018-09-27T08:59:01.940Z,19.15
2018-09-27T09:00:01.920Z,19.14
2018-09-27T09:01:01.893Z,19.28
2018-09-27T09:02:01.867Z,19.35
2018-09-27T09:03:01.847Z,19.11
2018-09-27T09:04:01.924Z,19.01
2018-09-27T09:05:01.800Z,18.99
2018-09-27T09:06:01.774Z,19.06
2018-09-27T09:07:01.752Z,19.24
2018-09-27T09:08:01.728Z,19.36
2018-09-27T09:09:01.708Z,19.38
2018-09-27T09:10:01.682Z,19.33
2018-09-27T09:11:01.661Z,19.28
2018-09-27T09:12:01.676Z,19.39
2018-09-27T09:13:01.615Z,19.39
2018-09-27T09:14:01.591Z,19.57
2018-09-27T09:15:01.570Z,19.65
2018-09-27T09:16:01.553Z,19.54
2018-09-27T09:17:01.528Z,19.60
2018-09-27T09:18:01.498Z,19.75
2018-09-27T09:19:01.482Z,19.90
2018-09-27T09:20:01.457Z,19.94
2018-09-27T09:21:01.439Z,19.88
2018-09-27T09:22:01.418Z,19.80
2018-09-27T09:23:01.393Z,19.84
2018-09-27T09:24:01.376Z,19.69
2018-09-27T09:25:01.352Z,19.61
2018-09-27T09:26:01.372Z,19.58
2018-09-27T09:27:01.299Z,19.72
2018-09-27T09:28:01.279Z,19.65
2018-09-27T09:29:01.285Z,19.68
2018-09-27T09:30:01.352Z,19.69
2018-09-27T09:31:01.216Z,19.68
2018-09-27T09:32:01.190Z,19.68
2018-09-27T09:33:01.169Z,19.70
2018-09-27T09:34:01.147Z,19.60
2018-09-27T09:35:01.172Z,19.60
2018-09-27T09:36:01.112Z,19.57
2018-09-27T09:37:01.079Z,19.55
2018-09-27T09:38:01.055Z,19.61
2018-09-27T09:39:01.042Z,19.66
2018-09-27T09:40:01.013Z,19.65
2018-09-27T09:41:00.991Z,19.72
2018-09-27T09:42:00.966Z,19.70
2018-09-27T09:43:00.946Z,19.86
2018-09-27T09:44:00.924Z,19.87
2018-09-27T09:45:00.910Z,19.88
2018-09-27T09:46:01.624Z,19.95
2018-09-27T09:47:00.860Z,20.18
2018-09-27T09:48:00.913Z,20.18
2018-09-27T09:49:00.821Z,20.21
2018-09-27T09:50:00.802Z,20.24
2018-09-27T09:51:00.768Z,20.18
2018-09-27T09:52:00.746Z,20.47
2018-09-27T09:53:00.723Z,20.54
2018-09-27T09:54:00.930Z,20.59
2018-09-27T09:55:00.680Z,20.68
2018-09-27T09:56:00.661Z,20.80
2018-09-27T09:57:00.637Z,20.74
2018-09-27T09:58:00.617Z,20.68
2018-09-27T09:59:00.600Z,20.69
2018-09-27T10:00:00.574Z,20.66
2018-09-27T10:01:00.553Z,20.51
2018-09-27T10:02:00.531Z,20.56
2018-09-27T10:03:00.509Z,20.46
2018-09-27T10:04:00.487Z,20.47
2018-09-27T10:05:00.471Z,20.53
2018-09-27T10:06:00.440Z,20.39
2018-09-27T10:07:00.423Z,20.50
2018-09-27T10:08:00.403Z,20.61
2018-09-27T10:09:00.459Z,20.64
2018-09-27T10:10:00.362Z,20.68
2018-09-27T10:11:00.337Z,20.64
2018-09-27T10:12:00.317Z,20.61
2018-09-27T10:13:00.296Z,20.62
2018-09-27T10:14:00.275Z,20.46
2018-09-27T10:15:00.252Z,20.38
2018-09-27T10:16:00.233Z,20.33
2018-09-27T10:17:00.215Z,20.39
2018-09-27T10:18:00.191Z,20.33
2018-09-27T10:19:00.173Z,20.34
2018-09-27T10:20:00.148Z,20.33
2018-09-27T10:21:00.132Z,20.25
2018-09-27T10:22:00.162Z,20.27
2018-09-27T10:23:00.084Z,20.34
2018-09-27T10:24:00.063Z,20.21
2018-09-27T10:25:00.045Z,20.27
2018-09-27T10:26:00.023Z,20.34
2018-09-27T10:26:59.996Z,20.38
2018-09-27T10:28:00.009Z,20.28
2018-09-27T10:28:59.954Z,20.49
2018-09-27T10:29:59.934Z,20.49
2018-09-27T10:30:59.912Z,20.54
2018-09-27T10:31:59.892Z,20.77
2018-09-27T10:32:59.868Z,20.84
2018-09-27T10:33:59.868Z,20.84
2018-09-27T10:34:59.828Z,20.90
2018-09-27T10:35:59.808Z,20.93
2018-09-27T10:36:59.785Z,20.99
2018-09-27T10:37:59.764Z,20.93
2018-09-27T10:38:59.744Z,21.05
2018-09-27T10:39:59.721Z,20.98
2018-09-27T10:40:59.700Z,20.91
2018-09-27T10:41:59.678Z,21.09
2018-09-27T10:42:59.661Z,21.13
2018-09-27T10:43:59.635Z,21.09
2018-09-27T10:44:59.626Z,20.98
2018-09-27T10:45:59.596Z,21.14
2018-09-27T10:46:59.576Z,21.14
2018-09-27T10:47:59.553Z,21.17
2018-09-27T10:48:59.533Z,21.17
2018-09-27T10:49:59.510Z,21.11
2018-09-27T10:50:59.489Z,21.23
2018-09-27T10:51:59.469Z,20.80
2018-09-27T10:52:59.448Z,20.69
2018-09-27T10:53:59.443Z,20.62
2018-09-27T10:54:59.409Z,20.68
2018-09-27T10:55:59.385Z,20.98
2018-09-27T10:56:59.370Z,20.93
2018-09-27T10:57:59.349Z,21.05
2018-09-27T10:58:59.325Z,20.91
2018-09-27T10:59:59.308Z,20.87
2018-09-27T11:00:59.285Z,20.95
2018-09-27T11:01:59.263Z,21.23
2018-09-27T11:02:59.242Z,21.39
2018-09-27T11:03:59.273Z,21.36
2018-09-27T11:04:59.200Z,21.16
2018-09-27T11:05:59.186Z,21.06
2018-09-27T11:06:59.157Z,21.08
2018-09-27T11:07:59.137Z,21.04
2018-09-27T11:08:59.118Z,21.02
2018-09-27T11:09:59.097Z,21.01
2018-09-27T11:10:59.114Z,20.93
2018-09-27T11:11:59.056Z,20.80
2018-09-27T11:12:59.033Z,20.62
2018-09-27T11:13:59.012Z,20.49
2018-09-27T11:14:58.991Z,20.49
2018-09-27T11:15:58.970Z,20.64
2018-09-27T11:16:58.950Z,20.65
2018-09-27T11:17:58.931Z,20.71
2018-09-27T11:18:58.907Z,20.74
2018-09-27T11:19:58.886Z,20.91
2018-09-27T11:20:58.864Z,20.95
2018-09-27T11:21:58.877Z,20.87
2018-09-27T11:22:58.820Z,20.90
2018-09-27T11:23:58.801Z,20.98
2018-09-27T11:24:58.781Z,21.14
2018-09-27T11:25:58.771Z,21.01
2018-09-27T11:26:58.740Z,20.96
2018-09-27T11:27:59.649Z,20.96
2018-09-27T11:28:58.742Z,20.93
2018-09-27T11:29:58.676Z,20.95
2018-09-27T11:30:58.653Z,21.09
2018-09-27T11:31:58.634Z,21.11
2018-09-27T11:32:58.621Z,21.13
2018-09-27T11:33:58.592Z,21.20
2018-09-27T11:34:58.570Z,21.23
2018-09-27T11:35:58.550Z,21.56
2018-09-27T11:36:58.530Z,21.51
2018-09-27T11:37:58.508Z,21.48
2018-09-27T11:38:59.152Z,21.51
2018-09-27T11:39:58.465Z,21.42
2018-09-27T11:40:58.443Z,21.09
2018-09-27T11:41:58.424Z,21.14
2018-09-27T11:42:58.496Z,21.14
2018-09-27T11:43:58.442Z,21.14
2018-09-27T11:44:58.383Z,21.23
2018-09-27T11:45:58.409Z,21.17
2018-09-27T11:46:58.361Z,21.11
2018-09-27T11:47:58.300Z,21.23
2018-09-27T11:48:58.324Z,21.11
2018-09-27T11:49:58.348Z,21.16
2018-09-27T11:50:58.238Z,21.29
2018-09-27T11:51:58.219Z,21.46
2018-09-27T11:52:58.198Z,21.72
2018-09-27T11:53:58.182Z,21.67
2018-09-27T11:54:58.217Z,21.69
2018-09-27T11:55:58.256Z,21.64
2018-09-27T11:56:58.117Z,21.71
2018-09-27T11:57:58.100Z,21.90
2018-09-27T11:58:58.113Z,21.75
2018-09-27T11:59:58.059Z,21.91
2018-09-27T12:00:58.266Z,21.98
2018-09-27T12:01:58.013Z,21.88
2018-09-27T12:02:58.044Z,21.91
2018-09-27T12:03:57.974Z,22.09
2018-09-27T12:04:57.953Z,21.82
2018-09-27T12:05:58.666Z,21.74
2018-09-27T12:06:57.914Z,21.69
2018-09-27T12:07:58.063Z,21.63
2018-09-27T12:08:57.878Z,21.56
2018-09-27T12:09:57.853Z,21.66
2018-09-27T12:10:57.834Z,21.67
2018-09-27T12:11:57.961Z,21.63
2018-09-27T12:12:57.849Z,21.92
2018-09-27T12:13:57.775Z,21.95
2018-09-27T12:14:57.752Z,21.97
2018-09-27T12:15:57.735Z,21.90
2018-09-27T12:16:57.709Z,21.88
2018-09-27T12:17:57.696Z,22.10
2018-09-27T12:18:57.673Z,21.91
2018-09-27T12:19:58.369Z,21.98
2018-09-27T12:20:57.632Z,21.94
2018-09-27T12:21:57.612Z,21.79
2018-09-27T12:22:57.679Z,21.69
2018-09-27T12:23:57.782Z,21.95
2018-09-27T12:24:57.557Z,21.97
2018-09-27T12:25:57.556Z,21.72
2018-09-27T12:26:57.525Z,21.72
2018-09-27T12:27:57.497Z,21.59
2018-09-27T12:28:57.475Z,21.42
2018-09-27T12:29:57.455Z,21.27
2018-09-27T12:30:57.467Z,21.29
2018-09-27T12:31:57.415Z,21.17
2018-09-27T12:32:57.394Z,21.13
2018-09-27T12:33:57.458Z,21.29
2018-09-27T12:34:57.353Z,21.29
2018-09-27T12:35:57.336Z,21.44
2018-09-27T12:36:57.314Z,21.66
2018-09-27T12:37:57.291Z,21.66
2018-09-27T12:38:58.202Z,21.74
2018-09-27T12:39:57.254Z,21.94
2018-09-27T12:40:57.233Z,21.81
2018-09-27T12:41:57.387Z,21.94
2018-09-27T12:42:57.288Z,21.91
2018-09-27T12:43:57.171Z,21.92
2018-09-27T12:44:57.183Z,21.88
2018-09-27T12:45:57.226Z,21.98
2018-09-27T12:46:57.176Z,21.99
2018-09-27T12:47:57.126Z,22.02
2018-09-27T12:48:57.129Z,22.02
2018-09-27T12:49:57.049Z,21.97
2018-09-27T12:50:57.032Z,22.02
2018-09-27T12:51:57.151Z,21.97
2018-09-27T12:52:57.017Z,22.09
2018-09-27T12:53:56.983Z,22.20